createdAt,value
2023-02-11T00:00:05.925Z,21.33
2023-02-11T00:06:11.578Z,19.90
2023-02-11T00:09:13.402Z,19.95
2023-02-11T00:12:15.832Z,17.42
2023-02-11T00:15:17.724Z,16.02
2023-02-11T00:18:20.354Z,19.85
2023-02-11T00:21:24.629Z,19.17
2023-02-11T00:24:26.580Z,20.90
2023-02-11T00:27:28.386Z,16.95
2023-02-11T00:30:30.354Z,19.45
2023-02-11T00:33:32.247Z,17.30
2023-02-11T00:36:34.212Z,18.73
2023-02-11T00:39:37.093Z,18.43
2023-02-11T00:42:38.961Z,20.58
2023-02-11T00:45:40.859Z,17.50
2023-02-11T00:48:42.837Z,18.05
2023-02-11T00:51:44.771Z,18.87
2023-02-11T00:57:49.400Z,19.85
2023-02-11T01:00:51.659Z,17.50
2023-02-11T01:03:53.530Z,15.83
2023-02-11T01:06:58.045Z,19.55
2023-02-11T01:10:00.867Z,23.23
2023-02-11T01:13:06.524Z,16.45
2023-02-11T01:16:10.149Z,17.08
2023-02-11T01:19:12.414Z,21.85
2023-02-11T01:22:14.324Z,18.70
2023-02-11T01:25:16.321Z,22.05
2023-02-11T01:28:20.657Z,19.40
2023-02-11T01:31:22.582Z,16.73
2023-02-11T01:34:24.623Z,16.03
2023-02-11T01:37:26.781Z,13.27
2023-02-11T01:40:28.632Z,18.85
2023-02-11T01:43:50.276Z,17.83
2023-02-11T01:46:52.409Z,15.63
2023-02-11T01:49:57.916Z,21.63
2023-02-11T01:53:20.081Z,19.17
2023-02-11T01:56:42.601Z,18.00
2023-02-11T02:00:10.109Z,22.75
2023-02-11T02:03:22.599Z,19.33
2023-02-11T02:06:37.346Z,17.05
2023-02-11T02:09:45.626Z,17.85
2023-02-11T02:12:47.948Z,19.30
2023-02-11T02:16:09.931Z,16.67
2023-02-11T02:20:02.918Z,17.90
2023-02-11T02:23:07.656Z,19.77
2023-02-11T02:26:30.707Z,17.48
2023-02-11T02:29:57.462Z,16.80
2023-02-11T02:33:23.016Z,17.88
2023-02-11T02:36:41.296Z,19.75
2023-02-11T02:39:46.983Z,16.33
2023-02-11T02:42:50.931Z,19.75
2023-02-11T02:45:53.311Z,20.55
2023-02-11T02:48:56.059Z,16.10
2023-02-11T02:52:12.741Z,17.52
2023-02-11T02:55:22.214Z,20.25
2023-02-11T02:58:34.836Z,18.35
2023-02-11T03:01:39.725Z,17.65
2023-02-11T03:05:03.580Z,18.90
2023-02-11T03:08:09.586Z,18.60
2023-02-11T03:11:13.482Z,17.17
2023-02-11T03:14:18.093Z,16.42
2023-02-11T03:17:22.025Z,19.67
2023-02-11T03:20:24.045Z,17.73
2023-02-11T03:23:30.853Z,19.63
2023-02-11T03:26:49.615Z,17.45
2023-02-11T03:30:00.104Z,20.25
2023-02-11T03:33:12.615Z,19.55
2023-02-11T03:36:24.413Z,20.27
2023-02-11T03:39:34.097Z,17.30
2023-02-11T03:42:46.060Z,21.23
2023-02-11T03:45:51.484Z,19.83
2023-02-11T03:48:59.385Z,18.08
2023-02-11T03:52:03.552Z,21.35
2023-02-11T03:55:12.432Z,22.00
2023-02-11T03:58:14.656Z,18.00
2023-02-11T04:01:17.061Z,16.80
2023-02-11T04:04:19.238Z,15.77
2023-02-11T04:07:21.103Z,18.67
2023-02-11T04:10:22.922Z,21.77
2023-02-11T04:13:24.760Z,21.45
2023-02-11T04:16:26.781Z,17.63
2023-02-11T04:19:28.650Z,21.10
2023-02-11T04:22:31.545Z,23.42
2023-02-11T04:28:36.371Z,19.52
2023-02-11T04:31:38.269Z,22.02
2023-02-11T04:34:40.363Z,22.08
2023-02-11T04:37:42.188Z,22.73
2023-02-11T04:40:44.072Z,27.27
2023-02-11T04:43:45.985Z,22.60
2023-02-11T04:46:48.316Z,23.33
2023-02-11T04:49:50.196Z,22.75
2023-02-11T04:52:52.054Z,22.88
2023-02-11T04:55:53.922Z,20.55
2023-02-11T04:58:55.822Z,20.98
2023-02-11T05:01:57.816Z,24.08
2023-02-11T05:04:59.730Z,24.90
2023-02-11T05:08:01.583Z,23.90
2023-02-11T05:11:03.738Z,22.45
2023-02-11T05:14:06.659Z,17.20
2023-02-11T05:17:08.554Z,26.63
2023-02-11T05:20:10.943Z,21.55
2023-02-11T05:23:12.766Z,19.33
2023-02-11T05:26:14.972Z,23.55
2023-02-11T05:29:16.721Z,23.42
2023-02-11T05:32:18.551Z,20.73
2023-02-11T05:35:20.542Z,24.58
2023-02-11T05:38:22.294Z,26.17
2023-02-11T05:41:24.458Z,29.02
2023-02-11T05:44:26.356Z,35.13
2023-02-11T05:47:28.219Z,28.27
2023-02-11T05:50:30.071Z,25.90
2023-02-11T05:53:31.931Z,23.60
2023-02-11T05:56:33.782Z,24.40
2023-02-11T05:59:35.688Z,22.05
2023-02-11T06:02:37.526Z,22.20
2023-02-11T06:05:39.382Z,24.52
2023-02-11T06:08:41.679Z,24.52
2023-02-11T06:11:43.502Z,20.92
2023-02-11T06:14:45.368Z,22.75
2023-02-11T06:17:47.323Z,23.35
2023-02-11T06:20:49.191Z,26.10
2023-02-11T06:23:50.957Z,22.17
2023-02-11T06:26:52.766Z,29.88
2023-02-11T06:29:54.602Z,52.20
2023-02-11T06:32:56.505Z,44.08
2023-02-11T06:35:58.280Z,32.13
2023-02-11T06:39:00.044Z,27.65
2023-02-11T06:42:01.879Z,25.67
2023-02-11T06:45:06.144Z,26.35
2023-02-11T06:48:08.050Z,25.73
2023-02-11T06:51:12.105Z,26.83
2023-02-11T06:54:13.944Z,26.65
2023-02-11T06:57:15.800Z,28.65
2023-02-11T07:00:17.876Z,26.98
2023-02-11T07:03:19.738Z,32.53
2023-02-11T07:06:23.863Z,30.42
2023-02-11T07:09:25.657Z,33.42
2023-02-11T07:12:27.485Z,27.20
2023-02-11T07:15:29.342Z,27.77
2023-02-11T07:18:31.220Z,32.75
2023-02-11T07:21:33.163Z,35.70
2023-02-11T07:24:34.927Z,33.28
2023-02-11T07:27:36.889Z,32.40
2023-02-11T07:30:38.763Z,30.23
2023-02-11T07:33:42.923Z,29.00
2023-02-11T07:36:45.217Z,27.63
2023-02-11T07:39:46.995Z,29.10
2023-02-11T07:42:48.780Z,29.08
2023-02-11T07:45:50.882Z,28.73
2023-02-11T07:48:53.099Z,31.10
2023-02-11T07:51:55.075Z,32.63
2023-02-11T07:54:57.412Z,27.92
2023-02-11T07:57:59.246Z,40.20
2023-02-11T08:01:03.182Z,31.52
2023-02-11T08:04:05.306Z,29.98
2023-02-11T08:07:07.183Z,30.97
2023-02-11T08:10:09.211Z,30.70
2023-02-11T08:13:11.001Z,28.67
2023-02-11T08:16:26.930Z,28.58
2023-02-11T08:19:29.085Z,29.90
2023-02-11T08:22:35.046Z,30.83
2023-02-11T08:25:36.922Z,29.27
2023-02-11T08:28:40.567Z,29.38
2023-02-11T08:31:45.672Z,31.55
2023-02-11T08:34:51.593Z,31.17
2023-02-11T08:37:53.517Z,28.13
2023-02-11T08:40:55.351Z,28.05
2023-02-11T08:43:57.263Z,29.40
2023-02-11T08:46:59.101Z,30.08
2023-02-11T08:50:00.850Z,28.35
2023-02-11T08:53:02.734Z,32.40
2023-02-11T08:56:06.152Z,31.40
2023-02-11T08:59:09.544Z,28.35
2023-02-11T09:02:14.948Z,29.30
2023-02-11T09:05:16.846Z,34.15
2023-02-11T09:08:19.483Z,30.48
2023-02-11T09:11:26.129Z,30.27
2023-02-11T09:14:28.378Z,34.40
2023-02-11T09:17:30.229Z,29.08
2023-02-11T09:20:32.293Z,29.25
2023-02-11T09:23:34.880Z,29.27
2023-02-11T09:26:37.122Z,30.70
2023-02-11T09:29:38.907Z,34.53
2023-02-11T09:32:40.775Z,27.92
2023-02-11T09:35:42.563Z,31.85
2023-02-11T09:38:44.590Z,29.45
2023-02-11T09:42:07.927Z,27.47
2023-02-11T09:48:18.637Z,30.05
2023-02-11T09:51:40.781Z,27.38
2023-02-11T09:54:56.780Z,28.27
2023-02-11T09:57:58.906Z,26.20
2023-02-11T10:01:41.302Z,25.20
2023-02-11T10:05:20.966Z,29.52
2023-02-11T10:08:49.968Z,25.02
2023-02-11T10:12:20.525Z,25.10
2023-02-11T10:16:16.569Z,30.88
2023-02-11T10:19:31.149Z,33.30
2023-02-11T10:22:39.857Z,31.05
2023-02-11T10:25:49.125Z,26.92
2023-02-11T10:28:55.099Z,28.80
2023-02-11T10:31:58.924Z,28.92
2023-02-11T10:35:15.245Z,33.30
2023-02-11T10:38:17.048Z,29.00
2023-02-11T10:44:37.946Z,31.98
2023-02-11T10:47:41.612Z,30.77
2023-02-11T10:50:43.397Z,30.92
2023-02-11T10:53:46.993Z,26.80
2023-02-11T10:56:52.874Z,32.70
2023-02-11T11:00:02.592Z,26.02
2023-02-11T11:03:21.139Z,28.67
2023-02-11T11:06:33.718Z,30.95
2023-02-11T11:09:48.638Z,32.47
2023-02-11T11:12:50.882Z,29.85
2023-02-11T11:16:13.015Z,29.23
2023-02-11T11:19:22.946Z,30.42
2023-02-11T11:22:24.808Z,31.65
2023-02-11T11:25:30.603Z,30.02
2023-02-11T11:29:01.774Z,32.67
2023-02-11T11:32:11.717Z,29.25
2023-02-11T11:35:27.582Z,30.50
2023-02-11T11:38:31.638Z,32.05
2023-02-11T11:41:34.827Z,32.53
2023-02-11T11:44:39.643Z,30.50
2023-02-11T11:48:06.542Z,29.95
2023-02-11T11:51:12.809Z,31.83
2023-02-11T11:54:18.486Z,29.30
2023-02-11T11:57:26.114Z,32.00
2023-02-11T12:00:44.109Z,32.95
2023-02-11T12:04:10.812Z,30.48
2023-02-11T12:07:40.425Z,33.00
2023-02-11T12:11:19.511Z,35.15
2023-02-11T12:14:46.218Z,33.72
2023-02-11T12:18:06.399Z,37.65
2023-02-11T12:21:17.043Z,36.63
2023-02-11T12:24:37.064Z,35.10
2023-02-11T12:27:54.871Z,38.17
2023-02-11T12:31:02.492Z,33.25
2023-02-11T12:34:19.102Z,33.70
2023-02-11T12:37:35.133Z,32.28
2023-02-11T12:40:46.147Z,32.15
2023-02-11T12:43:48.185Z,33.72
2023-02-11T12:47:21.979Z,34.40
2023-02-11T12:50:42.547Z,31.30
2023-02-11T12:54:22.885Z,31.60
2023-02-11T12:57:32.148Z,34.38
2023-02-11T13:00:47.695Z,32.92
2023-02-11T13:04:04.752Z,31.38
2023-02-11T13:07:16.010Z,32.08
2023-02-11T13:10:30.179Z,35.65
2023-02-11T13:13:39.395Z,31.58
2023-02-11T13:16:47.564Z,29.17
2023-02-11T13:19:58.936Z,29.33
2023-02-11T13:23:09.794Z,27.30
2023-02-11T13:26:18.985Z,27.83
2023-02-11T13:29:38.031Z,29.05
2023-02-11T13:32:55.619Z,32.38
2023-02-11T13:35:57.327Z,29.20
2023-02-11T13:39:02.823Z,32.90
2023-02-11T13:42:05.009Z,34.30
2023-02-11T13:45:25.106Z,33.00
2023-02-11T13:48:38.288Z,31.25
2023-02-11T13:54:49.089Z,33.38
2023-02-11T13:58:14.184Z,31.13
2023-02-11T14:02:06.724Z,36.05
2023-02-11T14:05:27.448Z,30.52
2023-02-11T14:08:47.896Z,32.22
2023-02-11T14:12:14.592Z,35.17
2023-02-11T14:15:21.826Z,32.10
2023-02-11T14:18:45.567Z,30.90
2023-02-11T14:21:47.512Z,36.78
2023-02-11T14:24:54.180Z,34.13
2023-02-11T14:28:21.751Z,33.97
2023-02-11T14:31:31.889Z,33.90
2023-02-11T14:34:43.054Z,32.05
2023-02-11T14:37:51.383Z,33.38
2023-02-11T14:41:24.669Z,36.60
2023-02-11T14:44:30.390Z,36.40
2023-02-11T14:47:45.066Z,35.50
2023-02-11T14:50:52.085Z,35.47
2023-02-11T14:54:10.976Z,36.97
2023-02-11T14:57:20.748Z,36.08
2023-02-11T15:00:23.152Z,40.63
2023-02-11T15:03:37.402Z,43.00
2023-02-11T15:06:42.612Z,43.58
2023-02-11T15:09:50.100Z,38.03
2023-02-11T15:12:52.356Z,40.13
2023-02-11T15:16:22.528Z,46.10
2023-02-11T15:19:38.743Z,48.60
2023-02-11T15:22:40.592Z,44.22
2023-02-11T15:25:56.040Z,45.72
2023-02-11T15:28:58.543Z,40.30
2023-02-11T15:32:27.197Z,43.85
2023-02-11T15:35:40.990Z,49.42
2023-02-11T15:38:43.182Z,42.08
2023-02-11T15:41:45.285Z,46.40
2023-02-11T15:44:54.346Z,43.10
2023-02-11T15:48:10.862Z,38.25
2023-02-11T15:51:12.842Z,46.70
2023-02-11T15:54:26.756Z,41.58
2023-02-11T15:57:29.077Z,49.25
2023-02-11T16:00:48.214Z,48.60
2023-02-11T16:03:50.722Z,49.15
2023-02-11T16:06:54.525Z,53.33
2023-02-11T16:09:58.638Z,41.90
2023-02-11T16:13:06.432Z,49.90
2023-02-11T16:16:19.646Z,49.03
2023-02-11T16:22:35.550Z,43.80
2023-02-11T16:25:37.981Z,45.95
2023-02-11T16:28:40.880Z,44.63
2023-02-11T16:31:48.332Z,46.42
2023-02-11T16:34:51.526Z,46.58
2023-02-11T16:37:54.427Z,42.15
2023-02-11T16:40:56.244Z,43.35
2023-02-11T16:43:58.903Z,41.05
2023-02-11T16:47:03.486Z,40.22
2023-02-11T16:50:09.521Z,39.75
2023-02-11T16:53:12.170Z,46.70
2023-02-11T16:56:18.435Z,43.83
2023-02-11T16:59:20.882Z,44.88
2023-02-11T17:02:33.344Z,49.38
2023-02-11T17:05:58.301Z,41.50
2023-02-11T17:08:57.930Z,71.20
2023-02-11T17:12:00.286Z,45.03
2023-02-11T17:15:02.264Z,48.28
2023-02-11T17:18:04.455Z,42.88
2023-02-11T17:21:07.278Z,44.28
2023-02-11T17:24:09.338Z,44.40
2023-02-11T17:27:12.027Z,44.67
2023-02-11T17:30:14.626Z,43.50
2023-02-11T17:33:16.667Z,43.35
2023-02-11T17:36:18.553Z,45.87
2023-02-11T17:39:21.180Z,45.50
2023-02-11T17:42:23.284Z,40.97
2023-02-11T17:45:25.205Z,45.17
2023-02-11T17:48:26.995Z,40.47
2023-02-11T17:51:37.347Z,46.42
2023-02-11T17:54:39.742Z,43.75
2023-02-11T17:57:41.640Z,49.08
2023-02-11T18:00:43.520Z,43.72
2023-02-11T18:03:45.982Z,45.03
2023-02-11T18:06:47.813Z,40.92
2023-02-11T18:09:49.616Z,45.15
2023-02-11T18:12:51.442Z,44.92
2023-02-11T18:15:53.699Z,41.85
2023-02-11T18:18:57.685Z,43.83
2023-02-11T18:22:01.056Z,41.83
2023-02-11T18:25:03.113Z,47.45
2023-02-11T18:28:05.197Z,43.33
2023-02-11T18:31:09.060Z,42.90
2023-02-11T18:34:11.771Z,44.40
2023-02-11T18:37:14.429Z,47.38
2023-02-11T18:40:16.290Z,43.88
2023-02-11T18:43:20.101Z,42.88
2023-02-11T18:46:22.110Z,40.22
2023-02-11T18:49:24.122Z,40.97
2023-02-11T18:52:26.076Z,40.60
2023-02-11T18:55:27.937Z,41.95
2023-02-11T18:58:29.958Z,42.25
2023-02-11T19:01:33.712Z,43.23
2023-02-11T19:04:37.526Z,44.88
2023-02-11T19:07:39.752Z,42.92
2023-02-11T19:10:43.583Z,30.02
2023-02-11T19:13:49.772Z,40.40
2023-02-11T19:16:54.043Z,38.78
2023-02-11T19:19:55.971Z,43.25
2023-02-11T19:22:57.981Z,40.03
2023-02-11T19:25:59.972Z,42.30
2023-02-11T19:29:02.348Z,44.80
2023-02-11T19:32:08.932Z,42.65
2023-02-11T19:35:10.983Z,41.17
2023-02-11T19:38:14.215Z,44.07
2023-02-11T19:41:16.236Z,41.67
2023-02-11T19:44:18.164Z,40.50
2023-02-11T19:47:20.083Z,41.70
2023-02-11T19:50:22.301Z,41.75
2023-02-11T19:53:24.692Z,39.60
2023-02-11T19:56:28.873Z,44.78
2023-02-11T19:59:30.815Z,40.90
2023-02-11T20:02:32.867Z,43.55
2023-02-11T20:05:35.180Z,38.83
2023-02-11T20:08:37.037Z,32.53
2023-02-11T20:11:40.613Z,36.67
2023-02-11T20:14:42.705Z,45.83
2023-02-11T20:17:44.860Z,41.80
2023-02-11T20:20:46.847Z,38.43
2023-02-11T20:23:50.045Z,38.70
2023-02-11T20:26:55.933Z,38.80
2023-02-11T20:29:58.068Z,41.30
2023-02-11T20:32:59.849Z,49.15
2023-02-11T20:36:08.043Z,42.72
2023-02-11T20:39:11.440Z,41.58
2023-02-11T20:42:14.725Z,40.13
2023-02-11T20:45:16.650Z,39.38
2023-02-11T20:48:18.592Z,38.58
2023-02-11T20:51:23.999Z,39.20
2023-02-11T20:54:26.238Z,40.60
2023-02-11T20:57:28.558Z,40.08
2023-02-11T21:00:31.034Z,41.10
2023-02-11T21:03:32.879Z,34.92
2023-02-11T21:06:40.339Z,35.10
2023-02-11T21:09:42.284Z,34.33
2023-02-11T21:12:44.182Z,33.85
2023-02-11T21:15:46.080Z,37.42
2023-02-11T21:18:49.263Z,39.58
2023-02-11T21:21:51.317Z,33.20
2023-02-11T21:24:53.171Z,34.77
2023-02-11T21:27:55.107Z,35.30
2023-02-11T21:30:58.368Z,31.02
2023-02-11T21:34:00.417Z,36.17
2023-02-11T21:37:02.277Z,36.42
2023-02-11T21:40:04.551Z,32.20
2023-02-11T21:43:06.564Z,33.08
2023-02-11T21:46:11.284Z,30.67
2023-02-11T21:49:13.427Z,31.35
2023-02-11T21:52:15.340Z,33.30
2023-02-11T21:55:17.243Z,32.45
2023-02-11T21:58:19.055Z,34.70
2023-02-11T22:01:30.776Z,35.03
2023-02-11T22:04:33.473Z,33.58
2023-02-11T22:07:36.557Z,31.08
2023-02-11T22:13:42.393Z,31.98
2023-02-11T22:16:46.097Z,30.13
2023-02-11T22:19:47.961Z,31.83
2023-02-11T22:22:50.788Z,31.98
2023-02-11T22:25:52.820Z,28.58
2023-02-11T22:28:55.492Z,27.80
2023-02-11T22:31:57.417Z,29.83
2023-02-11T22:34:59.343Z,31.67
2023-02-11T22:38:01.161Z,33.15
2023-02-11T22:41:09.549Z,29.38
2023-02-11T22:44:12.044Z,30.77
2023-02-11T22:47:13.859Z,29.77
2023-02-11T22:50:15.854Z,27.45
2023-02-11T22:53:17.708Z,28.05
2023-02-11T22:56:20.106Z,31.23
2023-02-11T22:59:21.980Z,27.35
2023-02-11T23:02:23.804Z,27.83
2023-02-11T23:05:25.671Z,31.10
2023-02-11T23:08:29.577Z,26.85
2023-02-11T23:11:32.488Z,27.80
2023-02-11T23:14:34.345Z,27.98
2023-02-11T23:17:36.437Z,29.00
2023-02-11T23:20:40.818Z,30.73
2023-02-11T23:23:42.980Z,29.08
2023-02-11T23:26:45.139Z,28.97
2023-02-11T23:29:46.942Z,22.17
2023-02-11T23:32:49.981Z,35.15
2023-02-11T23:38:53.515Z,25.95
2023-02-11T23:41:59.597Z,29.27
2023-02-11T23:45:01.589Z,28.25
2023-02-11T23:48:03.527Z,23.85
2023-02-11T23:51:06.455Z,27.40
2023-02-11T23:54:12.317Z,25.95
2023-02-11T23:57:14.446Z,27.08
